Accueil
METAR-TAF:

METAR-TAF

Aéroports :

Roi Et, Thaïlande

latitude: 16-07-00N, longitude: 103-46-26E, altitude: 138 m

Observation

Le bulletin a été fait il y a 5 heures et 44 minutes, à 14:00 UTC
Vent 8 kt de sud
Température 26°C
Humidité 94%
Pression 1005 hPa
Visibilité 10 km ou plus
Nuages épars à une hauteur de 3000 ft
Nuages fragmentés à une hauteur de 10000 ft

METAR: VTUV 241400Z 17008KT 9999 SCT030 BKN100 26/25 Q1005 NOSIG

Heure: 02:44 (19:44 UTC)

Prévision

Le bulletin a été fait il y a 2 heures et 44 minutes, à 17:00 UTC
Prévision valable du 24 à 18 UTC au 25 à 18 UTC
Vent 5 kt de sud
Visibilité: 8000 m
Nuages épars à une hauteur de 2500 ft
Temporairement
du 25 à 07 UTC au 25 à 15 UTC
Quelques nuages à une hauteur de 1800 ft, Cumulonimbus.
Nuages fragmentés à une hauteur de 2000 ft
orage, pluie faible,

TAF: VTUV 241700Z 2418/2518 18005KT 8000 SCT025 TEMPO 2507/2515 -TSRA FEW018CB BKN020

Observations et prévisions météorologiques de plus de 4000 aéroports (messages METAR et TAF).

Les stations disponibles sont représentées par des disques jaunes et rouges sur la carte.

Passer la souris dessus pour voir le nom de la station.

Cliquer dessus pour voir les observations et prévisions météorologiques.

Pour changer de carte: cliquez sur les boutons verts avec une croix noire pour zoomer, sur le bouton vert avec un tiret pour effectuer un zoom arrière, ou sur les flèches vertes pour les cartes adjacentes.


METAR-TAF: